createdAt,value
2023-03-08T00:02:18.161Z,99167.56
2023-03-08T00:04:45.043Z,99165.16
2023-03-08T00:07:11.898Z,99160.44
2023-03-08T00:09:39.005Z,99158.34
2023-03-08T00:12:07.478Z,99159.94
2023-03-08T00:14:34.386Z,99159.38
2023-03-08T00:17:02.535Z,99155.47
2023-03-08T00:19:29.324Z,99160.19
2023-03-08T00:21:56.042Z,99163.31
2023-03-08T00:24:22.923Z,99163.19
2023-03-08T00:26:49.721Z,99167.00
2023-03-08T00:29:16.595Z,99169.25
2023-03-08T00:31:43.476Z,99174.78
2023-03-08T00:34:12.231Z,99169.94
2023-03-08T00:36:41.060Z,99156.13
2023-03-08T00:39:09.211Z,99157.63
2023-03-08T00:41:37.616Z,99156.34
2023-03-08T00:44:04.536Z,99145.31
2023-03-08T00:46:31.537Z,99143.22
2023-03-08T00:48:58.734Z,99140.47
2023-03-08T00:51:26.234Z,99147.63
2023-03-08T00:53:53.040Z,99137.25
2023-03-08T00:56:20.217Z,99143.47
2023-03-08T00:58:47.145Z,99136.31
2023-03-08T01:01:17.600Z,99133.53
2023-03-08T01:04:05.267Z,99127.56
2023-03-08T01:06:31.982Z,99128.25
2023-03-08T01:08:58.619Z,99122.59
2023-03-08T01:11:27.039Z,99121.44
2023-03-08T01:13:55.003Z,99118.56
2023-03-08T01:16:25.689Z,99117.63
2023-03-08T01:18:52.838Z,99115.34
2023-03-08T01:21:21.334Z,99112.09
2023-03-08T01:23:48.200Z,99100.13
2023-03-08T01:26:17.753Z,99094.59
2023-03-08T01:28:44.854Z,99083.09
2023-03-08T01:31:14.696Z,99081.47
2023-03-08T01:33:42.907Z,99075.50
2023-03-08T01:36:12.270Z,99081.03
2023-03-08T01:38:39.109Z,99070.66
2023-03-08T01:41:07.744Z,99069.84
2023-03-08T01:43:39.303Z,99059.47
2023-03-08T01:46:25.011Z,99047.63
2023-03-08T01:49:11.189Z,99055.59
2023-03-08T01:51:45.057Z,99049.25
2023-03-08T01:54:21.933Z,99056.38
2023-03-08T01:56:50.868Z,99057.03
2023-03-08T01:59:21.848Z,99060.97
2023-03-08T02:01:49.577Z,99051.44
2023-03-08T02:04:16.790Z,99052.69
2023-03-08T02:06:45.902Z,99041.19
2023-03-08T02:09:17.264Z,99033.69
2023-03-08T02:11:44.493Z,99031.72
2023-03-08T02:14:11.233Z,99017.47
2023-03-08T02:16:41.440Z,99015.84
2023-03-08T02:19:16.943Z,99015.03
2023-03-08T02:21:43.813Z,99006.44
2023-03-08T02:24:19.657Z,99002.28
2023-03-08T02:26:47.005Z,98999.50
2023-03-08T02:29:13.750Z,98995.13
2023-03-08T02:31:41.014Z,98995.78
2023-03-08T02:34:08.380Z,98983.16
2023-03-08T02:36:35.570Z,98986.41
2023-03-08T02:39:02.526Z,98986.13
2023-03-08T02:41:29.212Z,98975.09
2023-03-08T02:43:55.971Z,98970.34
2023-03-08T02:46:22.795Z,98973.13
2023-03-08T02:48:52.988Z,98966.31
2023-03-08T02:51:21.201Z,98962.44
2023-03-08T02:53:47.848Z,98961.50
2023-03-08T02:56:14.940Z,98958.72
2023-03-08T02:58:41.734Z,98958.28
2023-03-08T03:01:13.168Z,98952.31
2023-03-08T03:03:40.633Z,98934.47
2023-03-08T03:06:18.508Z,98940.78
2023-03-08T03:08:48.739Z,98933.66
2023-03-08T03:11:20.106Z,98928.16
2023-03-08T03:13:55.486Z,98924.91
2023-03-08T03:16:24.145Z,98914.22
2023-03-08T03:18:55.893Z,98910.66
2023-03-08T03:21:23.874Z,98910.66
2023-03-08T03:23:51.212Z,98907.44
2023-03-08T03:26:23.462Z,98912.16
2023-03-08T03:28:57.049Z,98903.75
2023-03-08T03:31:27.459Z,98898.22
2023-03-08T03:33:54.790Z,98899.16
2023-03-08T03:36:24.472Z,98883.97
2023-03-08T03:38:51.899Z,98882.84
2023-03-08T03:41:22.132Z,98881.22
2023-03-08T03:43:52.994Z,98878.69
2023-03-08T03:46:21.666Z,98871.53
2023-03-08T03:48:52.320Z,98873.03
2023-03-08T03:51:22.787Z,98872.00
2023-03-08T03:53:58.713Z,98872.22
2023-03-08T03:56:27.870Z,98865.56
2023-03-08T03:58:59.053Z,98868.34
2023-03-08T04:01:29.512Z,98857.28
2023-03-08T04:04:05.664Z,98857.16
2023-03-08T04:06:35.787Z,98850.84
2023-03-08T04:09:08.428Z,98836.59
2023-03-08T04:11:39.944Z,98833.47
2023-03-08T04:14:11.891Z,98827.19
2023-03-08T04:16:40.526Z,98820.03
2023-03-08T04:19:14.071Z,98812.91
2023-03-08T04:21:47.881Z,98797.84
2023-03-08T04:24:17.001Z,98797.03
2023-03-08T04:26:46.337Z,98786.34
2023-03-08T04:29:16.975Z,98782.78
2023-03-08T04:31:44.016Z,98777.97
2023-03-08T04:34:14.034Z,98768.53
2023-03-08T04:36:41.725Z,98757.38
2023-03-08T04:39:09.448Z,98763.03
2023-03-08T04:41:36.442Z,98756.25
2023-03-08T04:44:12.246Z,98751.06
2023-03-08T04:46:44.101Z,98744.88
2023-03-08T04:49:15.543Z,98731.31
2023-03-08T04:51:45.653Z,98740.03
2023-03-08T04:54:13.106Z,98730.81
2023-03-08T04:56:45.802Z,98730.81
2023-03-08T04:59:14.737Z,98722.47
2023-03-08T05:01:42.773Z,98715.31
2023-03-08T05:04:11.901Z,98714.53
2023-03-08T05:06:40.423Z,98709.69
2023-03-08T05:09:09.021Z,98700.97
2023-03-08T05:11:37.879Z,98709.69
2023-03-08T05:14:04.983Z,98700.97
2023-03-08T05:16:32.346Z,98700.97
2023-03-08T05:18:59.038Z,98699.34
2023-03-08T05:21:31.675Z,98688.31
2023-03-08T05:24:00.924Z,98682.34
2023-03-08T05:26:31.396Z,98671.69
2023-03-08T05:29:03.412Z,98660.53
2023-03-08T05:31:31.359Z,98675.59
2023-03-08T05:34:00.273Z,98667.63
2023-03-08T05:36:37.075Z,98649.50
2023-03-08T05:39:07.070Z,98636.16
2023-03-08T05:41:50.859Z,98644.00
2023-03-08T05:44:24.319Z,98632.97
2023-03-08T05:46:52.253Z,98624.25
2023-03-08T05:49:20.229Z,98603.31
2023-03-08T05:51:47.147Z,98595.75
2023-03-08T05:54:14.524Z,98593.31
2023-03-08T05:56:43.337Z,98593.44
2023-03-08T05:59:20.833Z,98598.06
2023-03-08T06:01:47.850Z,98587.81
2023-03-08T06:04:37.403Z,98583.09
2023-03-08T06:07:04.739Z,98570.50
2023-03-08T06:09:38.661Z,98577.59
2023-03-08T06:12:07.999Z,98564.97
2023-03-08T06:14:34.934Z,98551.41
2023-03-08T06:17:02.085Z,98543.94
2023-03-08T06:19:31.407Z,98540.38
2023-03-08T06:21:58.203Z,98526.16
2023-03-08T06:24:26.028Z,98526.97
2023-03-08T06:26:55.630Z,98515.13
2023-03-08T06:29:41.247Z,98515.94
2023-03-08T06:32:09.244Z,98514.31
2023-03-08T06:34:39.118Z,98520.53
2023-03-08T06:37:06.092Z,98516.97
2023-03-08T06:39:34.190Z,98511.81
2023-03-08T06:42:02.948Z,98505.50
2023-03-08T06:44:30.989Z,98499.19
2023-03-08T06:46:57.890Z,98499.88
2023-03-08T06:49:25.613Z,98502.28
2023-03-08T06:51:53.367Z,98504.59
2023-03-08T06:54:21.945Z,98508.50
2023-03-08T06:56:49.079Z,98507.69
2023-03-08T06:59:15.809Z,98504.59
2023-03-08T07:01:42.757Z,98515.16
2023-03-08T07:04:09.482Z,98508.06
2023-03-08T07:06:36.204Z,98504.50
2023-03-08T07:09:03.179Z,98496.41
2023-03-08T07:11:31.461Z,98492.88
2023-03-08T07:13:59.353Z,98488.06
2023-03-08T07:16:26.589Z,98480.03
2023-03-08T07:18:53.768Z,98480.81
2023-03-08T07:21:20.608Z,98467.41
2023-03-08T07:23:47.746Z,98467.41
2023-03-08T07:26:14.526Z,98464.19
2023-03-08T07:28:41.610Z,98463.28
2023-03-08T07:31:11.852Z,98456.97
2023-03-08T07:33:38.810Z,98450.66
2023-03-08T07:36:06.118Z,98453.28
2023-03-08T07:38:32.831Z,98449.06
2023-03-08T07:40:59.547Z,98443.56
2023-03-08T07:43:26.336Z,98438.75
2023-03-08T07:46:04.631Z,98430.47
2023-03-08T07:48:32.595Z,98427.59
2023-03-08T07:51:07.458Z,98426.44
2023-03-08T07:53:34.955Z,98422.91
2023-03-08T07:56:01.942Z,98414.63
2023-03-08T07:58:29.553Z,98415.78
2023-03-08T08:00:56.592Z,98407.06
2023-03-08T08:03:23.509Z,98408.66
2023-03-08T08:05:50.389Z,98412.09
2023-03-08T08:08:17.343Z,98403.84
2023-03-08T08:10:44.656Z,98405.00
2023-03-08T08:13:11.696Z,98392.03
2023-03-08T08:15:38.525Z,98388.75
2023-03-08T08:18:05.478Z,98374.25
2023-03-08T08:20:32.183Z,98380.91
2023-03-08T08:22:58.934Z,98388.75
2023-03-08T08:25:25.704Z,98382.41
2023-03-08T08:27:52.711Z,98376.09
2023-03-08T08:30:19.871Z,98380.00
2023-03-08T08:32:46.717Z,98378.41
2023-03-08T08:35:13.685Z,98375.19
2023-03-08T08:37:40.624Z,98379.13
2023-03-08T08:40:08.412Z,98378.41
2023-03-08T08:42:35.160Z,98373.59
2023-03-08T08:45:01.868Z,98381.50
2023-03-08T08:47:30.057Z,98372.31
2023-03-08T08:49:56.767Z,98370.03
2023-03-08T08:52:23.561Z,98364.88
2023-03-08T08:54:53.182Z,98364.88
2023-03-08T08:57:20.002Z,98365.56
2023-03-08T08:59:47.093Z,98369.47
2023-03-08T09:02:14.612Z,98359.59
2023-03-08T09:04:41.645Z,98350.66
2023-03-08T09:07:08.693Z,98339.63
2023-03-08T09:09:35.652Z,98349.03
2023-03-08T09:12:02.366Z,98349.03
2023-03-08T09:14:34.837Z,98349.03
2023-03-08T09:17:06.720Z,98341.53
2023-03-08T09:19:33.785Z,98349.88
2023-03-08T09:22:00.574Z,98346.81
2023-03-08T09:24:27.418Z,98346.56
2023-03-08T09:26:54.091Z,98344.06
2023-03-08T09:29:20.740Z,98341.03
2023-03-08T09:31:47.832Z,98330.19
2023-03-08T09:34:15.553Z,98332.00
2023-03-08T09:36:42.776Z,98333.31
2023-03-08T09:39:12.045Z,98317.69
2023-03-08T09:41:44.968Z,98317.41
2023-03-08T09:44:14.225Z,98314.38
2023-03-08T09:46:56.437Z,98315.28
2023-03-08T09:49:29.815Z,98312.53
2023-03-08T09:52:11.332Z,98298.97
2023-03-08T09:54:40.274Z,98304.66
2023-03-08T09:57:17.302Z,98304.94
2023-03-08T09:59:58.504Z,98307.50
2023-03-08T10:02:53.379Z,98305.53
2023-03-08T10:05:41.310Z,98316.50
2023-03-08T10:08:29.994Z,98312.81
2023-03-08T10:11:14.848Z,98321.00
2023-03-08T10:13:44.210Z,98317.00
2023-03-08T10:16:10.879Z,98322.06
2023-03-08T10:18:49.970Z,98319.66
2023-03-08T10:21:19.630Z,98315.63
2023-03-08T10:23:48.514Z,98315.19
2023-03-08T10:26:15.902Z,98312.00
2023-03-08T10:28:42.654Z,98305.69
2023-03-08T10:31:18.859Z,98301.69
2023-03-08T10:33:46.183Z,98301.69
2023-03-08T10:36:22.444Z,98299.28
2023-03-08T10:39:09.333Z,98292.50
2023-03-08T10:41:49.766Z,98296.06
2023-03-08T10:44:37.077Z,98284.25
2023-03-08T10:47:19.854Z,98289.31
2023-03-08T10:49:47.529Z,98287.69
2023-03-08T10:52:28.328Z,98292.41
2023-03-08T10:55:06.474Z,98280.94
2023-03-08T10:57:33.836Z,98273.81
2023-03-08T11:00:12.384Z,98275.81
2023-03-08T11:02:39.294Z,98269.81
2023-03-08T11:05:18.567Z,98266.72
2023-03-08T11:07:53.675Z,98267.00
2023-03-08T11:10:25.961Z,98265.59
2023-03-08T11:13:28.970Z,98263.38
2023-03-08T11:16:07.100Z,98252.84
2023-03-08T11:18:39.907Z,98257.09
2023-03-08T11:21:14.756Z,98260.38
2023-03-08T11:23:53.744Z,98252.84
2023-03-08T11:26:26.252Z,98248.78
2023-03-08T11:29:12.900Z,98250.16
2023-03-08T11:31:49.302Z,98246.94
2023-03-08T11:34:16.193Z,98245.06
2023-03-08T11:36:55.077Z,98251.00
2023-03-08T11:40:07.894Z,98256.25
2023-03-08T11:42:47.833Z,98253.34
2023-03-08T11:45:20.377Z,98256.28
2023-03-08T11:47:59.053Z,98257.63
2023-03-08T11:50:44.648Z,98256.13
2023-03-08T11:53:25.579Z,98253.94
2023-03-08T11:56:14.987Z,98250.88
2023-03-08T11:58:49.240Z,98242.66
2023-03-08T12:01:24.585Z,98238.38
2023-03-08T12:04:01.034Z,98236.16
2023-03-08T12:06:40.914Z,98240.22
2023-03-08T12:09:32.726Z,98244.16
2023-03-08T12:12:12.488Z,98230.41
2023-03-08T12:15:07.404Z,98219.47
2023-03-08T12:17:44.181Z,98221.50
2023-03-08T12:20:15.682Z,98224.19
2023-03-08T12:22:49.845Z,98218.50
2023-03-08T12:25:33.478Z,98213.22
2023-03-08T12:28:20.629Z,98222.75
2023-03-08T12:30:59.864Z,98217.88
2023-03-08T12:33:28.920Z,98219.38
2023-03-08T12:36:14.678Z,98216.34
2023-03-08T12:38:45.861Z,98214.03
2023-03-08T12:41:30.469Z,98210.06
2023-03-08T12:44:05.508Z,98217.28
2023-03-08T12:47:02.412Z,98213.44
2023-03-08T12:49:34.667Z,98212.75
2023-03-08T12:52:06.783Z,98208.31
2023-03-08T12:54:35.641Z,98204.84
2023-03-08T12:57:14.388Z,98209.97
2023-03-08T12:59:41.400Z,98209.69
2023-03-08T13:02:17.003Z,98193.13
2023-03-08T13:04:43.838Z,98204.63
2023-03-08T13:08:04.517Z,98194.63
2023-03-08T13:10:35.744Z,98186.63
2023-03-08T13:13:20.403Z,98169.16
2023-03-08T13:16:17.568Z,98168.34
2023-03-08T13:18:47.873Z,98172.19
2023-03-08T13:21:35.132Z,98168.69
2023-03-08T13:24:13.820Z,98159.97
2023-03-08T13:26:55.216Z,98163.47
2023-03-08T13:29:22.163Z,98174.53
2023-03-08T13:31:50.092Z,98176.13
2023-03-08T13:34:29.389Z,98180.06
2023-03-08T13:36:56.664Z,98181.19
2023-03-08T13:39:26.596Z,98182.41
2023-03-08T13:42:04.787Z,98181.25
2023-03-08T13:44:31.521Z,98174.47
2023-03-08T13:47:02.454Z,98172.94
2023-03-08T13:49:36.894Z,98168.16
2023-03-08T13:52:14.045Z,98162.28
2023-03-08T13:54:47.279Z,98165.03
2023-03-08T13:57:33.546Z,98159.09
2023-03-08T14:00:02.148Z,98163.47
2023-03-08T14:02:32.663Z,98163.09
2023-03-08T14:04:59.622Z,98165.03
2023-03-08T14:07:32.260Z,98165.03
2023-03-08T14:09:59.200Z,98156.34
2023-03-08T14:12:31.033Z,98152.41
2023-03-08T14:15:02.577Z,98154.78
2023-03-08T14:17:32.532Z,98153.19
2023-03-08T14:20:21.579Z,98153.19
2023-03-08T14:22:50.986Z,98158.75
2023-03-08T14:25:28.434Z,98166.66
2023-03-08T14:27:56.102Z,98168.25
2023-03-08T14:30:28.747Z,98173.94
2023-03-08T14:33:23.168Z,98166.78
2023-03-08T14:36:00.123Z,98181.53
2023-03-08T14:38:32.909Z,98179.94
2023-03-08T14:41:06.101Z,98186.75
2023-03-08T14:43:33.152Z,98183.69
2023-03-08T14:46:06.156Z,98186.06
2023-03-08T14:48:37.969Z,98184.41
2023-03-08T14:51:24.943Z,98178.06
2023-03-08T14:54:03.107Z,98177.34
2023-03-08T14:56:31.263Z,98182.47
2023-03-08T14:59:03.727Z,98180.53
2023-03-08T15:01:35.780Z,98183.75
2023-03-08T15:04:03.692Z,98180.53
2023-03-08T15:06:35.392Z,98176.25
2023-03-08T15:09:03.999Z,98184.91
2023-03-08T15:11:31.730Z,98191.72
2023-03-08T15:13:59.576Z,98188.56
2023-03-08T15:16:27.247Z,98195.66
2023-03-08T15:18:54.181Z,98198.06
2023-03-08T15:21:24.636Z,98191.78
2023-03-08T15:23:52.209Z,98191.78
2023-03-08T15:26:24.779Z,98185.47
2023-03-08T15:28:51.640Z,98199.28
2023-03-08T15:31:18.580Z,98199.75
2023-03-08T15:33:45.741Z,98183.06
2023-03-08T15:36:18.030Z,98191.84
2023-03-08T15:38:45.600Z,98195.81
2023-03-08T15:41:13.732Z,98193.41
2023-03-08T15:43:40.970Z,98195.00
2023-03-08T15:46:11.813Z,98205.44
2023-03-08T15:48:38.672Z,98202.50
2023-03-08T15:51:05.734Z,98213.22
2023-03-08T15:53:35.829Z,98212.03
2023-03-08T15:56:03.485Z,98216.47
2023-03-08T15:58:30.346Z,98210.09
2023-03-08T16:00:56.996Z,98209.69
2023-03-08T16:03:31.087Z,98209.59
2023-03-08T16:05:58.847Z,98186.00
2023-03-08T16:08:28.689Z,98185.56
2023-03-08T16:10:55.708Z,98181.31
2023-03-08T16:13:22.545Z,98175.84
2023-03-08T16:15:49.565Z,98178.66
2023-03-08T16:18:16.811Z,98176.53
2023-03-08T16:20:46.360Z,98179.63
2023-03-08T16:23:13.329Z,98176.53
2023-03-08T16:25:43.168Z,98170.97
2023-03-08T16:28:10.970Z,98170.72
2023-03-08T16:30:39.411Z,98169.09
2023-03-08T16:33:06.197Z,98166.16
2023-03-08T16:35:33.056Z,98178.13
2023-03-08T16:37:59.951Z,98180.56
2023-03-08T16:40:31.126Z,98172.22
2023-03-08T16:42:58.262Z,98169.47
2023-03-08T16:45:25.391Z,98169.47
2023-03-08T16:47:52.365Z,98169.47
2023-03-08T16:50:19.187Z,98168.75
2023-03-08T16:52:45.912Z,98179.06
2023-03-08T16:55:12.575Z,98177.44
2023-03-08T16:57:40.297Z,98173.44
2023-03-08T17:00:12.058Z,98180.47
2023-03-08T17:02:39.198Z,98174.13
2023-03-08T17:05:06.908Z,98175.41
2023-03-08T17:07:33.530Z,98172.63
2023-03-08T17:10:00.846Z,98167.09
2023-03-08T17:12:27.499Z,98165.56
2023-03-08T17:14:59.862Z,98165.94
2023-03-08T17:17:26.773Z,98144.88
2023-03-08T17:19:54.093Z,98131.38
2023-03-08T17:22:21.113Z,98138.25
2023-03-08T17:24:47.972Z,98143.81
2023-03-08T17:27:15.222Z,98140.28
2023-03-08T17:29:42.010Z,98147.41
2023-03-08T17:32:08.824Z,98153.72
2023-03-08T17:34:35.653Z,98146.66
2023-03-08T17:37:02.317Z,98146.28
2023-03-08T17:39:29.078Z,98147.50
2023-03-08T17:41:55.801Z,98149.06
2023-03-08T17:44:22.453Z,98149.09
2023-03-08T17:46:49.321Z,98158.63
2023-03-08T17:49:23.126Z,98161.00
2023-03-08T17:51:50.938Z,98153.88
2023-03-08T17:54:18.621Z,98163.69
2023-03-08T17:56:45.870Z,98187.88
2023-03-08T17:59:17.573Z,98168.44
2023-03-08T18:01:44.798Z,98182.97
2023-03-08T18:04:11.535Z,98199.28
2023-03-08T18:06:42.608Z,98184.56
2023-03-08T18:09:13.525Z,98177.44
2023-03-08T18:11:41.393Z,98170.25
2023-03-08T18:14:10.619Z,98163.91
2023-03-08T18:16:38.600Z,98171.81
2023-03-08T18:19:06.650Z,98169.00
2023-03-08T18:21:35.538Z,98176.53
2023-03-08T18:24:02.560Z,98162.22
2023-03-08T18:26:29.508Z,98163.00
2023-03-08T18:28:56.277Z,98168.16
2023-03-08T18:31:26.146Z,98166.53
2023-03-08T18:33:55.314Z,98160.63
2023-03-08T18:36:22.850Z,98164.50
2023-03-08T18:38:50.010Z,98156.19
2023-03-08T18:41:22.497Z,98146.25
2023-03-08T18:44:07.714Z,98138.34
2023-03-08T18:46:34.633Z,98134.78
2023-03-08T18:49:07.534Z,98132.75
2023-03-08T18:51:36.605Z,98127.34
2023-03-08T18:54:04.942Z,98130.78
2023-03-08T18:56:31.762Z,98134.09
2023-03-08T18:59:02.846Z,98116.69
2023-03-08T19:01:31.301Z,98118.69
2023-03-08T19:04:07.023Z,98118.69
2023-03-08T19:06:34.603Z,98130.19
2023-03-08T19:09:08.021Z,98134.22
2023-03-08T19:11:35.144Z,98127.03
2023-03-08T19:14:02.029Z,98134.88
2023-03-08T19:16:31.720Z,98132.09
2023-03-08T19:19:01.701Z,98123.00
2023-03-08T19:21:31.121Z,98121.41
2023-03-08T19:23:58.667Z,98120.56
2023-03-08T19:26:36.773Z,98136.41
2023-03-08T19:29:08.869Z,98127.66
2023-03-08T19:31:40.968Z,98131.53
2023-03-08T19:34:08.680Z,98129.97
2023-03-08T19:36:36.378Z,98118.06
2023-03-08T19:39:14.855Z,98122.41
2023-03-08T19:41:42.384Z,98114.00
2023-03-08T19:44:09.998Z,98100.16
2023-03-08T19:46:38.786Z,98118.34
2023-03-08T19:49:07.528Z,98113.97
2023-03-08T19:51:35.075Z,98123.53
2023-03-08T19:54:03.109Z,98131.41
2023-03-08T19:56:30.234Z,98127.47
2023-03-08T19:58:57.243Z,98119.97
2023-03-08T20:01:24.082Z,98125.88
2023-03-08T20:03:51.205Z,98124.34
2023-03-08T20:06:27.203Z,98114.91
2023-03-08T20:08:55.587Z,98112.91
2023-03-08T20:11:23.014Z,98110.19
2023-03-08T20:13:49.890Z,98110.97
2023-03-08T20:16:18.693Z,98109.44
2023-03-08T20:18:45.936Z,98111.03
2023-03-08T20:21:12.811Z,98111.81
2023-03-08T20:23:39.622Z,98112.97
2023-03-08T20:26:07.096Z,98109.44
2023-03-08T20:28:33.868Z,98115.34
2023-03-08T20:31:01.013Z,98117.38
2023-03-08T20:33:27.761Z,98111.03
2023-03-08T20:35:59.337Z,98117.34
2023-03-08T20:38:27.015Z,98119.75
2023-03-08T20:41:06.053Z,98108.66
2023-03-08T20:43:33.890Z,98095.19
2023-03-08T20:46:05.921Z,98102.31
2023-03-08T20:48:34.609Z,98091.84
2023-03-08T20:51:02.720Z,98093.44
2023-03-08T20:53:30.716Z,98091.88
2023-03-08T20:55:57.872Z,98089.53
2023-03-08T20:58:25.552Z,98090.72
2023-03-08T21:00:52.364Z,98088.31
2023-03-08T21:03:19.440Z,98089.53
2023-03-08T21:05:46.299Z,98085.59
2023-03-08T21:08:13.215Z,98087.16
2023-03-08T21:10:40.388Z,98079.28
2023-03-08T21:13:07.867Z,98080.88
2023-03-08T21:15:35.106Z,98085.56
2023-03-08T21:18:01.848Z,98081.63
2023-03-08T21:20:28.575Z,98080.47
2023-03-08T21:22:55.285Z,98089.16
2023-03-08T21:25:22.235Z,98091.91
2023-03-08T21:27:48.839Z,98076.84
2023-03-08T21:30:15.842Z,98062.53
2023-03-08T21:32:42.695Z,98055.41
2023-03-08T21:35:09.953Z,98053.84
2023-03-08T21:37:36.752Z,98049.88
2023-03-08T21:40:05.939Z,98039.56
2023-03-08T21:42:32.990Z,98037.22
2023-03-08T21:44:59.922Z,98045.06
2023-03-08T21:47:26.586Z,98040.25
2023-03-08T21:49:53.283Z,98029.56
2023-03-08T21:52:19.941Z,98019.69
2023-03-08T21:54:46.762Z,98010.94
2023-03-08T21:57:13.462Z,98008.44
2023-03-08T21:59:40.222Z,98008.41
2023-03-08T22:02:09.857Z,98008.00
2023-03-08T22:04:37.918Z,98013.06
2023-03-08T22:07:23.476Z,98001.09
2023-03-08T22:09:50.310Z,97999.44
2023-03-08T22:12:20.769Z,98007.22
2023-03-08T22:14:47.504Z,98002.00
2023-03-08T22:17:14.426Z,97995.59
2023-03-08T22:19:41.249Z,97997.16
2023-03-08T22:22:09.955Z,97988.00
2023-03-08T22:24:36.717Z,98009.28
2023-03-08T22:27:04.741Z,98000.50
2023-03-08T22:29:31.753Z,97998.06
2023-03-08T22:31:58.489Z,97991.31
2023-03-08T22:34:25.320Z,97979.78
2023-03-08T22:36:52.166Z,97981.28
2023-03-08T22:39:18.893Z,97976.91
2023-03-08T22:41:45.641Z,97974.84
2023-03-08T22:44:16.293Z,97983.53
2023-03-08T22:46:43.006Z,97972.03
2023-03-08T22:49:11.916Z,97962.91
2023-03-08T22:51:39.983Z,97962.81
2023-03-08T22:54:08.010Z,97973.03
2023-03-08T22:56:35.307Z,97980.91
2023-03-08T22:59:03.015Z,97972.63
2023-03-08T23:01:30.886Z,97983.56
2023-03-08T23:03:59.598Z,97990.25
2023-03-08T23:06:28.535Z,97991.78
2023-03-08T23:09:01.358Z,97990.97
2023-03-08T23:11:28.650Z,97984.59
2023-03-08T23:13:55.639Z,97977.84
2023-03-08T23:16:22.480Z,97981.38
2023-03-08T23:18:50.706Z,97988.03
2023-03-08T23:21:19.569Z,98001.03
2023-03-08T23:23:46.288Z,98000.22
2023-03-08T23:26:17.309Z,98003.31
2023-03-08T23:28:44.631Z,97987.50
2023-03-08T23:31:17.892Z,97998.53
2023-03-08T23:33:44.877Z,97977.56
2023-03-08T23:36:13.305Z,97985.00
2023-03-08T23:38:40.194Z,97982.16
2023-03-08T23:41:09.766Z,97972.66
2023-03-08T23:43:37.827Z,97969.91
2023-03-08T23:46:07.320Z,97956.41
2023-03-08T23:48:34.693Z,97972.94
2023-03-08T23:51:04.206Z,97972.94
2023-03-08T23:53:30.870Z,97987.13
2023-03-08T23:55:57.552Z,97996.16
2023-03-08T23:58:24.378Z,98012.31
